sensor_id;sensor_type;location;lat;lon;timestamp;P1;durP1;ratioP1;P2;durP2;ratioP2
18411;SDS011;27097;51.738;19.472;2023-05-07T00:01:50;12.05;;;3.35;;
18411;SDS011;27097;51.738;19.472;2023-05-07T00:04:17;17.92;;;3.75;;
18411;SDS011;27097;51.738;19.472;2023-05-07T00:06:44;6.95;;;2.80;;
18411;SDS011;27097;51.738;19.472;2023-05-07T00:09:11;8.73;;;3.30;;
18411;SDS011;27097;51.738;19.472;2023-05-07T00:11:37;8.77;;;2.95;;
18411;SDS011;27097;51.738;19.472;2023-05-07T00:14:05;12.15;;;3.00;;
18411;SDS011;27097;51.738;19.472;2023-05-07T00:16:33;13.73;;;3.17;;
18411;SDS011;27097;51.738;19.472;2023-05-07T00:19:00;10.07;;;2.78;;
18411;SDS011;27097;51.738;19.472;2023-05-07T00:21:27;5.97;;;2.75;;
18411;SDS011;27097;51.738;19.472;2023-05-07T00:23:54;6.82;;;2.97;;
18411;SDS011;27097;51.738;19.472;2023-05-07T00:26:21;11.05;;;3.05;;
18411;SDS011;27097;51.738;19.472;2023-05-07T00:28:48;7.53;;;3.00;;
18411;SDS011;27097;51.738;19.472;2023-05-07T00:31:15;5.10;;;2.90;;
18411;SDS011;27097;51.738;19.472;2023-05-07T00:33:43;11.75;;;3.05;;
18411;SDS011;27097;51.738;19.472;2023-05-07T00:36:10;10.73;;;3.13;;
18411;SDS011;27097;51.738;19.472;2023-05-07T00:38:37;8.18;;;3.05;;
18411;SDS011;27097;51.738;19.472;2023-05-07T00:41:04;5.65;;;2.80;;
18411;SDS011;27097;51.738;19.472;2023-05-07T00:43:31;8.07;;;2.78;;
18411;SDS011;27097;51.738;19.472;2023-05-07T00:45:58;10.68;;;2.83;;
18411;SDS011;27097;51.738;19.472;2023-05-07T00:48:25;9.18;;;3.15;;
18411;SDS011;27097;51.738;19.472;2023-05-07T00:50:54;6.45;;;2.80;;
18411;SDS011;27097;51.738;19.472;2023-05-07T00:53:21;5.88;;;2.53;;
18411;SDS011;27097;51.738;19.472;2023-05-07T00:55:48;5.50;;;2.38;;
18411;SDS011;27097;51.738;19.472;2023-05-07T00:58:15;6.63;;;2.50;;
18411;SDS011;27097;51.738;19.472;2023-05-07T01:00:42;4.22;;;2.50;;
18411;SDS011;27097;51.738;19.472;2023-05-07T01:03:09;7.30;;;2.67;;
18411;SDS011;27097;51.738;19.472;2023-05-07T01:05:36;8.45;;;2.97;;
18411;SDS011;27097;51.738;19.472;2023-05-07T01:08:04;7.18;;;2.67;;
18411;SDS011;27097;51.738;19.472;2023-05-07T01:10:31;10.50;;;2.78;;
18411;SDS011;27097;51.738;19.472;2023-05-07T01:12:58;5.70;;;2.40;;
18411;SDS011;27097;51.738;19.472;2023-05-07T01:15:26;7.22;;;2.75;;
18411;SDS011;27097;51.738;19.472;2023-05-07T01:17:53;12.40;;;2.60;;
18411;SDS011;27097;51.738;19.472;2023-05-07T01:20:22;7.50;;;2.72;;
18411;SDS011;27097;51.738;19.472;2023-05-07T01:22:50;8.98;;;2.55;;
18411;SDS011;27097;51.738;19.472;2023-05-07T01:25:19;8.95;;;2.50;;
18411;SDS011;27097;51.738;19.472;2023-05-07T01:27:46;4.90;;;2.70;;
18411;SDS011;27097;51.738;19.472;2023-05-07T01:30:13;5.88;;;2.50;;
18411;SDS011;27097;51.738;19.472;2023-05-07T01:32:48;8.20;;;2.95;;
18411;SDS011;27097;51.738;19.472;2023-05-07T01:35:19;7.40;;;2.45;;
18411;SDS011;27097;51.738;19.472;2023-05-07T01:37:48;9.50;;;2.60;;
18411;SDS011;27097;51.738;19.472;2023-05-07T01:40:17;6.60;;;2.85;;
18411;SDS011;27097;51.738;19.472;2023-05-07T01:43:29;7.15;;;2.65;;
18411;SDS011;27097;51.738;19.472;2023-05-07T01:45:59;6.22;;;2.67;;
18411;SDS011;27097;51.738;19.472;2023-05-07T01:48:35;5.95;;;2.20;;
18411;SDS011;27097;51.738;19.472;2023-05-07T01:51:09;7.65;;;2.95;;
18411;SDS011;27097;51.738;19.472;2023-05-07T01:53:36;9.52;;;2.50;;
18411;SDS011;27097;51.738;19.472;2023-05-07T01:56:04;6.32;;;2.50;;
18411;SDS011;27097;51.738;19.472;2023-05-07T01:58:32;4.15;;;2.40;;
18411;SDS011;27097;51.738;19.472;2023-05-07T02:00:59;6.43;;;2.60;;
18411;SDS011;27097;51.738;19.472;2023-05-07T02:03:26;4.43;;;2.50;;
18411;SDS011;27097;51.738;19.472;2023-05-07T02:05:53;7.10;;;2.58;;
18411;SDS011;27097;51.738;19.472;2023-05-07T02:08:19;5.20;;;2.38;;
18411;SDS011;27097;51.738;19.472;2023-05-07T02:10:46;4.35;;;2.38;;
18411;SDS011;27097;51.738;19.472;2023-05-07T02:13:14;4.82;;;2.38;;
18411;SDS011;27097;51.738;19.472;2023-05-07T02:15:41;4.05;;;2.00;;
18411;SDS011;27097;51.738;19.472;2023-05-07T02:18:11;4.60;;;2.33;;
18411;SDS011;27097;51.738;19.472;2023-05-07T02:20:38;4.25;;;2.20;;
18411;SDS011;27097;51.738;19.472;2023-05-07T02:23:04;4.82;;;2.30;;
18411;SDS011;27097;51.738;19.472;2023-05-07T02:25:31;4.32;;;2.20;;
18411;SDS011;27097;51.738;19.472;2023-05-07T02:27:58;4.93;;;2.40;;
18411;SDS011;27097;51.738;19.472;2023-05-07T02:30:26;12.13;;;2.30;;
18411;SDS011;27097;51.738;19.472;2023-05-07T02:32:53;13.32;;;2.30;;
18411;SDS011;27097;51.738;19.472;2023-05-07T02:35:20;6.78;;;2.40;;
18411;SDS011;27097;51.738;19.472;2023-05-07T02:37:47;4.70;;;2.20;;
18411;SDS011;27097;51.738;19.472;2023-05-07T02:40:14;3.50;;;2.10;;
18411;SDS011;27097;51.738;19.472;2023-05-07T02:42:41;5.72;;;2.25;;
18411;SDS011;27097;51.738;19.472;2023-05-07T02:45:08;6.57;;;2.50;;
18411;SDS011;27097;51.738;19.472;2023-05-07T02:47:37;4.88;;;2.47;;
18411;SDS011;27097;51.738;19.472;2023-05-07T02:50:04;5.35;;;2.30;;
18411;SDS011;27097;51.738;19.472;2023-05-07T02:52:32;7.32;;;2.15;;
18411;SDS011;27097;51.738;19.472;2023-05-07T02:54:59;4.57;;;2.30;;
18411;SDS011;27097;51.738;19.472;2023-05-07T02:57:26;5.95;;;2.40;;
18411;SDS011;27097;51.738;19.472;2023-05-07T02:59:52;3.72;;;2.25;;
18411;SDS011;27097;51.738;19.472;2023-05-07T03:02:19;4.15;;;1.92;;
18411;SDS011;27097;51.738;19.472;2023-05-07T03:04:47;4.97;;;2.20;;
18411;SDS011;27097;51.738;19.472;2023-05-07T03:07:14;3.63;;;2.30;;
18411;SDS011;27097;51.738;19.472;2023-05-07T03:09:41;3.10;;;2.15;;
18411;SDS011;27097;51.738;19.472;2023-05-07T03:12:08;3.58;;;2.10;;
18411;SDS011;27097;51.738;19.472;2023-05-07T03:14:35;4.88;;;2.00;;
18411;SDS011;27097;51.738;19.472;2023-05-07T03:17:02;3.22;;;2.22;;
18411;SDS011;27097;51.738;19.472;2023-05-07T03:19:29;4.30;;;2.33;;
18411;SDS011;27097;51.738;19.472;2023-05-07T03:21:58;5.32;;;1.85;;
18411;SDS011;27097;51.738;19.472;2023-05-07T03:24:24;3.22;;;2.25;;
18411;SDS011;27097;51.738;19.472;2023-05-07T03:26:51;5.75;;;2.50;;
18411;SDS011;27097;51.738;19.472;2023-05-07T03:29:18;7.43;;;2.55;;
18411;SDS011;27097;51.738;19.472;2023-05-07T03:31:45;3.78;;;2.38;;
18411;SDS011;27097;51.738;19.472;2023-05-07T03:34:12;4.00;;;2.00;;
18411;SDS011;27097;51.738;19.472;2023-05-07T03:36:39;5.32;;;2.28;;
18411;SDS011;27097;51.738;19.472;2023-05-07T03:39:07;3.63;;;2.25;;
18411;SDS011;27097;51.738;19.472;2023-05-07T03:41:34;3.15;;;2.30;;
18411;SDS011;27097;51.738;19.472;2023-05-07T03:44:01;2.50;;;2.10;;
18411;SDS011;27097;51.738;19.472;2023-05-07T03:46:28;7.80;;;2.17;;
18411;SDS011;27097;51.738;19.472;2023-05-07T03:48:55;2.65;;;1.67;;
18411;SDS011;27097;51.738;19.472;2023-05-07T03:51:22;4.03;;;2.30;;
18411;SDS011;27097;51.738;19.472;2023-05-07T03:53:48;3.65;;;2.05;;
18411;SDS011;27097;51.738;19.472;2023-05-07T03:56:19;3.20;;;2.03;;
18411;SDS011;27097;51.738;19.472;2023-05-07T03:58:46;7.10;;;2.70;;
18411;SDS011;27097;51.738;19.472;2023-05-07T04:01:13;3.70;;;2.05;;
18411;SDS011;27097;51.738;19.472;2023-05-07T04:03:40;3.78;;;2.05;;
18411;SDS011;27097;51.738;19.472;2023-05-07T04:06:07;3.67;;;1.95;;
18411;SDS011;27097;51.738;19.472;2023-05-07T04:08:34;3.60;;;2.20;;
18411;SDS011;27097;51.738;19.472;2023-05-07T04:11:01;3.60;;;2.10;;
18411;SDS011;27097;51.738;19.472;2023-05-07T04:13:29;4.25;;;2.60;;
18411;SDS011;27097;51.738;19.472;2023-05-07T04:15:56;5.82;;;2.25;;
18411;SDS011;27097;51.738;19.472;2023-05-07T04:18:23;4.35;;;1.80;;
18411;SDS011;27097;51.738;19.472;2023-05-07T04:20:50;4.22;;;2.00;;
18411;SDS011;27097;51.738;19.472;2023-05-07T04:23:17;4.80;;;1.92;;
18411;SDS011;27097;51.738;19.472;2023-05-07T04:25:43;7.47;;;2.35;;
18411;SDS011;27097;51.738;19.472;2023-05-07T04:28:11;4.50;;;1.90;;
18411;SDS011;27097;51.738;19.472;2023-05-07T04:30:40;5.32;;;1.98;;
18411;SDS011;27097;51.738;19.472;2023-05-07T04:33:07;6.53;;;2.10;;
18411;SDS011;27097;51.738;19.472;2023-05-07T04:36:58;3.30;;;2.17;;
18411;SDS011;27097;51.738;19.472;2023-05-07T04:39:08;3.42;;;1.95;;
18411;SDS011;27097;51.738;19.472;2023-05-07T04:41:37;2.75;;;1.98;;
18411;SDS011;27097;51.738;19.472;2023-05-07T04:44:07;5.10;;;2.28;;
18411;SDS011;27097;51.738;19.472;2023-05-07T04:46:35;3.10;;;1.90;;
18411;SDS011;27097;51.738;19.472;2023-05-07T04:49:02;2.83;;;1.83;;
18411;SDS011;27097;51.738;19.472;2023-05-07T04:51:29;2.90;;;2.10;;
18411;SDS011;27097;51.738;19.472;2023-05-07T04:53:57;3.78;;;2.30;;
18411;SDS011;27097;51.738;19.472;2023-05-07T04:56:27;2.65;;;1.95;;
18411;SDS011;27097;51.738;19.472;2023-05-07T04:58:54;2.53;;;2.03;;
18411;SDS011;27097;51.738;19.472;2023-05-07T05:01:20;4.03;;;2.35;;
18411;SDS011;27097;51.738;19.472;2023-05-07T05:03:49;4.90;;;2.25;;
18411;SDS011;27097;51.738;19.472;2023-05-07T05:06:16;5.63;;;2.08;;
18411;SDS011;27097;51.738;19.472;2023-05-07T05:08:42;3.75;;;2.00;;
18411;SDS011;27097;51.738;19.472;2023-05-07T05:11:09;5.93;;;2.35;;
18411;SDS011;27097;51.738;19.472;2023-05-07T05:13:36;4.75;;;2.00;;
18411;SDS011;27097;51.738;19.472;2023-05-07T05:16:03;3.78;;;2.35;;
18411;SDS011;27097;51.738;19.472;2023-05-07T05:18:31;3.13;;;1.80;;
18411;SDS011;27097;51.738;19.472;2023-05-07T05:21:00;8.02;;;1.95;;
18411;SDS011;27097;51.738;19.472;2023-05-07T05:23:27;5.93;;;2.00;;
18411;SDS011;27097;51.738;19.472;2023-05-07T05:25:55;3.92;;;2.10;;
18411;SDS011;27097;51.738;19.472;2023-05-07T05:28:22;4.28;;;2.10;;
18411;SDS011;27097;51.738;19.472;2023-05-07T05:30:49;4.45;;;2.30;;
18411;SDS011;27097;51.738;19.472;2023-05-07T05:33:16;7.93;;;2.13;;
18411;SDS011;27097;51.738;19.472;2023-05-07T05:35:43;3.70;;;1.98;;
18411;SDS011;27097;51.738;19.472;2023-05-07T05:38:11;4.50;;;1.80;;
18411;SDS011;27097;51.738;19.472;2023-05-07T05:40:38;2.63;;;2.10;;
18411;SDS011;27097;51.738;19.472;2023-05-07T05:43:05;6.28;;;2.40;;
18411;SDS011;27097;51.738;19.472;2023-05-07T05:45:32;6.20;;;2.15;;
18411;SDS011;27097;51.738;19.472;2023-05-07T05:47:59;5.90;;;2.00;;
18411;SDS011;27097;51.738;19.472;2023-05-07T05:50:26;6.30;;;2.15;;
18411;SDS011;27097;51.738;19.472;2023-05-07T05:52:53;3.83;;;1.98;;
18411;SDS011;27097;51.738;19.472;2023-05-07T05:55:21;2.00;;;1.73;;
18411;SDS011;27097;51.738;19.472;2023-05-07T05:57:48;2.15;;;1.83;;
18411;SDS011;27097;51.738;19.472;2023-05-07T06:00:15;8.10;;;2.05;;
18411;SDS011;27097;51.738;19.472;2023-05-07T06:02:42;3.47;;;2.00;;
18411;SDS011;27097;51.738;19.472;2023-05-07T06:05:09;11.38;;;2.58;;
18411;SDS011;27097;51.738;19.472;2023-05-07T06:07:36;4.57;;;2.00;;
18411;SDS011;27097;51.738;19.472;2023-05-07T06:10:03;4.88;;;2.00;;
18411;SDS011;27097;51.738;19.472;2023-05-07T06:12:32;6.03;;;1.95;;
18411;SDS011;27097;51.738;19.472;2023-05-07T06:14:59;7.10;;;2.20;;
18411;SDS011;27097;51.738;19.472;2023-05-07T06:17:26;5.22;;;2.17;;
18411;SDS011;27097;51.738;19.472;2023-05-07T06:19:59;5.75;;;2.22;;
18411;SDS011;27097;51.738;19.472;2023-05-07T06:22:26;14.52;;;2.00;;
18411;SDS011;27097;51.738;19.472;2023-05-07T06:24:53;5.32;;;2.10;;
18411;SDS011;27097;51.738;19.472;2023-05-07T06:30:36;8.13;;;2.10;;
18411;SDS011;27097;51.738;19.472;2023-05-07T06:33:03;4.88;;;2.05;;
18411;SDS011;27097;51.738;19.472;2023-05-07T06:37:59;2.65;;;1.88;;
18411;SDS011;27097;51.738;19.472;2023-05-07T06:41:15;8.55;;;2.10;;
18411;SDS011;27097;51.738;19.472;2023-05-07T06:43:52;6.68;;;2.15;;
18411;SDS011;27097;51.738;19.472;2023-05-07T06:46:27;12.68;;;2.20;;
18411;SDS011;27097;51.738;19.472;2023-05-07T06:48:54;11.68;;;2.22;;
18411;SDS011;27097;51.738;19.472;2023-05-07T06:51:21;7.22;;;2.40;;
18411;SDS011;27097;51.738;19.472;2023-05-07T06:53:48;12.07;;;2.28;;
18411;SDS011;27097;51.738;19.472;2023-05-07T06:56:15;7.70;;;2.17;;
18411;SDS011;27097;51.738;19.472;2023-05-07T06:58:42;10.25;;;2.38;;
18411;SDS011;27097;51.738;19.472;2023-05-07T07:01:10;12.85;;;2.70;;
18411;SDS011;27097;51.738;19.472;2023-05-07T07:03:37;10.52;;;2.60;;
18411;SDS011;27097;51.738;19.472;2023-05-07T07:06:04;11.23;;;2.22;;
18411;SDS011;27097;51.738;19.472;2023-05-07T07:08:31;8.38;;;2.40;;
18411;SDS011;27097;51.738;19.472;2023-05-07T07:10:58;9.35;;;2.47;;
18411;SDS011;27097;51.738;19.472;2023-05-07T07:13:25;20.25;;;2.75;;
18411;SDS011;27097;51.738;19.472;2023-05-07T07:15:51;10.43;;;2.30;;
18411;SDS011;27097;51.738;19.472;2023-05-07T07:18:20;12.07;;;2.25;;
18411;SDS011;27097;51.738;19.472;2023-05-07T07:20:47;9.82;;;2.38;;
18411;SDS011;27097;51.738;19.472;2023-05-07T07:26:13;10.50;;;2.80;;
18411;SDS011;27097;51.738;19.472;2023-05-07T07:28:43;8.38;;;2.45;;
18411;SDS011;27097;51.738;19.472;2023-05-07T07:31:10;19.90;;;3.53;;
18411;SDS011;27097;51.738;19.472;2023-05-07T07:33:45;8.15;;;2.88;;
18411;SDS011;27097;51.738;19.472;2023-05-07T07:36:28;10.93;;;3.63;;
18411;SDS011;27097;51.738;19.472;2023-05-07T07:39:09;20.23;;;3.88;;
18411;SDS011;27097;51.738;19.472;2023-05-07T07:41:35;13.85;;;3.10;;
18411;SDS011;27097;51.738;19.472;2023-05-07T07:44:03;12.52;;;3.00;;
18411;SDS011;27097;51.738;19.472;2023-05-07T07:46:32;17.42;;;3.42;;
18411;SDS011;27097;51.738;19.472;2023-05-07T07:49:01;17.50;;;3.13;;
18411;SDS011;27097;51.738;19.472;2023-05-07T07:51:33;23.10;;;3.05;;
18411;SDS011;27097;51.738;19.472;2023-05-07T07:54:00;21.52;;;2.92;;
18411;SDS011;27097;51.738;19.472;2023-05-07T07:56:33;20.38;;;3.20;;
18411;SDS011;27097;51.738;19.472;2023-05-07T07:59:01;11.63;;;2.95;;
18411;SDS011;27097;51.738;19.472;2023-05-07T08:01:42;16.50;;;3.03;;
18411;SDS011;27097;51.738;19.472;2023-05-07T08:07:02;16.70;;;3.50;;
18411;SDS011;27097;51.738;19.472;2023-05-07T08:09:50;18.30;;;3.45;;
18411;SDS011;27097;51.738;19.472;2023-05-07T08:12:46;13.02;;;2.92;;
18411;SDS011;27097;51.738;19.472;2023-05-07T08:15:20;13.30;;;2.97;;
18411;SDS011;27097;51.738;19.472;2023-05-07T08:17:47;11.45;;;3.08;;
18411;SDS011;27097;51.738;19.472;2023-05-07T08:20:14;14.52;;;2.92;;
18411;SDS011;27097;51.738;19.472;2023-05-07T08:22:43;16.40;;;3.65;;
18411;SDS011;27097;51.738;19.472;2023-05-07T08:25:12;13.77;;;2.80;;
18411;SDS011;27097;51.738;19.472;2023-05-07T08:27:50;13.43;;;2.70;;
18411;SDS011;27097;51.738;19.472;2023-05-07T08:30:18;11.88;;;2.97;;
18411;SDS011;27097;51.738;19.472;2023-05-07T08:32:45;17.73;;;3.13;;
18411;SDS011;27097;51.738;19.472;2023-05-07T08:35:12;17.65;;;2.95;;
18411;SDS011;27097;51.738;19.472;2023-05-07T08:37:39;13.45;;;3.25;;
18411;SDS011;27097;51.738;19.472;2023-05-07T08:40:08;16.85;;;2.58;;
18411;SDS011;27097;51.738;19.472;2023-05-07T08:42:35;7.25;;;2.42;;
18411;SDS011;27097;51.738;19.472;2023-05-07T08:45:04;17.13;;;2.88;;
18411;SDS011;27097;51.738;19.472;2023-05-07T08:47:40;9.88;;;2.60;;
18411;SDS011;27097;51.738;19.472;2023-05-07T08:50:16;16.35;;;3.17;;
18411;SDS011;27097;51.738;19.472;2023-05-07T08:52:53;11.13;;;2.58;;
18411;SDS011;27097;51.738;19.472;2023-05-07T08:55:22;10.18;;;2.65;;
18411;SDS011;27097;51.738;19.472;2023-05-07T08:57:50;15.40;;;3.00;;
18411;SDS011;27097;51.738;19.472;2023-05-07T09:00:18;15.57;;;2.78;;
18411;SDS011;27097;51.738;19.472;2023-05-07T09:02:44;11.20;;;2.50;;
18411;SDS011;27097;51.738;19.472;2023-05-07T09:05:23;12.40;;;3.50;;
18411;SDS011;27097;51.738;19.472;2023-05-07T09:07:50;8.43;;;2.60;;
18411;SDS011;27097;51.738;19.472;2023-05-07T09:10:17;10.98;;;2.85;;
18411;SDS011;27097;51.738;19.472;2023-05-07T09:12:57;12.38;;;2.67;;
18411;SDS011;27097;51.738;19.472;2023-05-07T09:15:27;12.82;;;2.72;;
18411;SDS011;27097;51.738;19.472;2023-05-07T09:18:03;7.90;;;2.63;;
18411;SDS011;27097;51.738;19.472;2023-05-07T09:20:38;9.52;;;2.65;;
18411;SDS011;27097;51.738;19.472;2023-05-07T09:23:06;10.40;;;2.90;;
18411;SDS011;27097;51.738;19.472;2023-05-07T09:25:40;7.63;;;3.40;;
18411;SDS011;27097;51.738;19.472;2023-05-07T09:28:08;8.13;;;2.53;;
18411;SDS011;27097;51.738;19.472;2023-05-07T09:33:28;12.13;;;2.90;;
18411;SDS011;27097;51.738;19.472;2023-05-07T09:35:55;10.80;;;2.92;;
18411;SDS011;27097;51.738;19.472;2023-05-07T09:38:22;9.85;;;3.00;;
18411;SDS011;27097;51.738;19.472;2023-05-07T09:40:53;8.43;;;2.78;;
18411;SDS011;27097;51.738;19.472;2023-05-07T09:43:31;11.70;;;2.60;;
18411;SDS011;27097;51.738;19.472;2023-05-07T09:46:00;5.88;;;2.40;;
18411;SDS011;27097;51.738;19.472;2023-05-07T09:48:36;11.18;;;2.70;;
18411;SDS011;27097;51.738;19.472;2023-05-07T09:51:06;5.63;;;2.67;;
18411;SDS011;27097;51.738;19.472;2023-05-07T09:53:42;13.75;;;2.80;;
18411;SDS011;27097;51.738;19.472;2023-05-07T09:56:12;11.27;;;2.78;;
18411;SDS011;27097;51.738;19.472;2023-05-07T09:58:41;4.93;;;2.45;;
18411;SDS011;27097;51.738;19.472;2023-05-07T10:01:10;9.93;;;2.67;;
18411;SDS011;27097;51.738;19.472;2023-05-07T10:03:39;11.18;;;2.90;;
18411;SDS011;27097;51.738;19.472;2023-05-07T10:08:35;4.85;;;2.08;;
18411;SDS011;27097;51.738;19.472;2023-05-07T10:11:02;3.88;;;2.25;;
18411;SDS011;27097;51.738;19.472;2023-05-07T10:16:56;5.25;;;2.00;;
18411;SDS011;27097;51.738;19.472;2023-05-07T10:19:38;5.82;;;2.25;;
18411;SDS011;27097;51.738;19.472;2023-05-07T10:22:26;20.42;;;2.03;;
18411;SDS011;27097;51.738;19.472;2023-05-07T10:25:02;8.38;;;2.00;;
18411;SDS011;27097;51.738;19.472;2023-05-07T10:27:30;15.98;;;2.70;;
18411;SDS011;27097;51.738;19.472;2023-05-07T10:30:00;12.35;;;2.35;;
18411;SDS011;27097;51.738;19.472;2023-05-07T10:32:43;15.75;;;2.50;;
18411;SDS011;27097;51.738;19.472;2023-05-07T10:35:14;11.93;;;2.30;;
18411;SDS011;27097;51.738;19.472;2023-05-07T10:37:49;8.90;;;2.08;;
18411;SDS011;27097;51.738;19.472;2023-05-07T10:40:22;15.13;;;2.67;;
18411;SDS011;27097;51.738;19.472;2023-05-07T10:42:55;17.02;;;2.47;;
18411;SDS011;27097;51.738;19.472;2023-05-07T10:45:27;27.92;;;2.90;;
18411;SDS011;27097;51.738;19.472;2023-05-07T10:50:32;21.85;;;2.20;;
18411;SDS011;27097;51.738;19.472;2023-05-07T11:05:20;13.77;;;2.47;;
18411;SDS011;27097;51.738;19.472;2023-05-07T11:07:54;16.30;;;2.88;;
18411;SDS011;27097;51.738;19.472;2023-05-07T11:10:22;15.38;;;2.90;;
18411;SDS011;27097;51.738;19.472;2023-05-07T11:12:49;11.50;;;2.13;;
18411;SDS011;27097;51.738;19.472;2023-05-07T11:18:04;9.00;;;1.92;;
18411;SDS011;27097;51.738;19.472;2023-05-07T11:26:28;9.05;;;2.33;;
18411;SDS011;27097;51.738;19.472;2023-05-07T11:28:57;12.25;;;2.45;;
18411;SDS011;27097;51.738;19.472;2023-05-07T11:31:26;5.28;;;2.28;;
18411;SDS011;27097;51.738;19.472;2023-05-07T11:33:55;12.10;;;2.20;;
18411;SDS011;27097;51.738;19.472;2023-05-07T11:36:22;17.50;;;2.17;;
18411;SDS011;27097;51.738;19.472;2023-05-07T11:38:51;12.50;;;2.28;;
18411;SDS011;27097;51.738;19.472;2023-05-07T11:41:18;6.53;;;2.20;;
18411;SDS011;27097;51.738;19.472;2023-05-07T11:43:57;5.80;;;1.85;;
18411;SDS011;27097;51.738;19.472;2023-05-07T11:46:26;5.88;;;1.60;;
18411;SDS011;27097;51.738;19.472;2023-05-07T11:48:53;7.35;;;1.80;;
18411;SDS011;27097;51.738;19.472;2023-05-07T11:51:21;5.40;;;1.70;;
18411;SDS011;27097;51.738;19.472;2023-05-07T11:56:49;3.28;;;1.75;;
18411;SDS011;27097;51.738;19.472;2023-05-07T11:59:26;5.40;;;1.75;;
18411;SDS011;27097;51.738;19.472;2023-05-07T12:01:55;3.90;;;1.77;;
18411;SDS011;27097;51.738;19.472;2023-05-07T12:04:24;2.70;;;1.70;;
18411;SDS011;27097;51.738;19.472;2023-05-07T12:06:53;2.20;;;1.80;;
18411;SDS011;27097;51.738;19.472;2023-05-07T12:09:20;4.75;;;1.85;;
18411;SDS011;27097;51.738;19.472;2023-05-07T12:11:47;8.10;;;1.80;;
18411;SDS011;27097;51.738;19.472;2023-05-07T12:14:14;4.90;;;1.83;;
18411;SDS011;27097;51.738;19.472;2023-05-07T12:16:43;5.72;;;1.70;;
18411;SDS011;27097;51.738;19.472;2023-05-07T12:19:11;5.72;;;1.70;;
18411;SDS011;27097;51.738;19.472;2023-05-07T12:21:38;3.35;;;1.63;;
18411;SDS011;27097;51.738;19.472;2023-05-07T12:24:05;6.53;;;1.60;;
18411;SDS011;27097;51.738;19.472;2023-05-07T12:26:36;4.20;;;1.42;;
18411;SDS011;27097;51.738;19.472;2023-05-07T12:29:04;3.08;;;1.60;;
18411;SDS011;27097;51.738;19.472;2023-05-07T12:31:31;3.90;;;1.63;;
18411;SDS011;27097;51.738;19.472;2023-05-07T12:34:00;2.55;;;1.67;;
18411;SDS011;27097;51.738;19.472;2023-05-07T12:36:35;5.50;;;1.48;;
18411;SDS011;27097;51.738;19.472;2023-05-07T12:39:04;4.97;;;1.60;;
18411;SDS011;27097;51.738;19.472;2023-05-07T12:41:30;1.50;;;1.40;;
18411;SDS011;27097;51.738;19.472;2023-05-07T12:44:03;4.93;;;1.67;;
18411;SDS011;27097;51.738;19.472;2023-05-07T12:46:31;2.75;;;1.38;;
18411;SDS011;27097;51.738;19.472;2023-05-07T12:48:58;5.25;;;1.60;;
18411;SDS011;27097;51.738;19.472;2023-05-07T12:51:26;2.42;;;1.60;;
18411;SDS011;27097;51.738;19.472;2023-05-07T12:53:55;3.58;;;1.60;;
18411;SDS011;27097;51.738;19.472;2023-05-07T12:56:22;2.40;;;1.50;;
18411;SDS011;27097;51.738;19.472;2023-05-07T12:58:49;1.90;;;1.40;;
18411;SDS011;27097;51.738;19.472;2023-05-07T13:01:16;3.53;;;1.55;;
18411;SDS011;27097;51.738;19.472;2023-05-07T13:03:47;2.58;;;1.40;;
18411;SDS011;27097;51.738;19.472;2023-05-07T13:06:15;3.00;;;1.40;;
18411;SDS011;27097;51.738;19.472;2023-05-07T13:12:02;1.83;;;1.25;;
18411;SDS011;27097;51.738;19.472;2023-05-07T13:14:29;2.50;;;1.60;;
18411;SDS011;27097;51.738;19.472;2023-05-07T13:16:55;1.30;;;1.20;;
18411;SDS011;27097;51.738;19.472;2023-05-07T13:19:22;3.28;;;1.40;;
18411;SDS011;27097;51.738;19.472;2023-05-07T13:21:49;2.15;;;1.70;;
18411;SDS011;27097;51.738;19.472;2023-05-07T13:24:16;2.80;;;1.60;;
18411;SDS011;27097;51.738;19.472;2023-05-07T13:26:44;2.30;;;1.63;;
18411;SDS011;27097;51.738;19.472;2023-05-07T13:29:11;1.65;;;1.40;;
18411;SDS011;27097;51.738;19.472;2023-05-07T13:31:38;1.83;;;1.52;;
18411;SDS011;27097;51.738;19.472;2023-05-07T13:34:07;2.55;;;1.52;;
18411;SDS011;27097;51.738;19.472;2023-05-07T13:36:34;1.88;;;1.40;;
18411;SDS011;27097;51.738;19.472;2023-05-07T13:39:02;1.85;;;1.40;;
18411;SDS011;27097;51.738;19.472;2023-05-07T13:41:29;1.63;;;1.50;;
18411;SDS011;27097;51.738;19.472;2023-05-07T13:43:57;3.47;;;1.33;;
18411;SDS011;27097;51.738;19.472;2023-05-07T13:46:24;2.60;;;1.40;;
18411;SDS011;27097;51.738;19.472;2023-05-07T13:48:51;1.77;;;1.50;;
18411;SDS011;27097;51.738;19.472;2023-05-07T13:51:18;1.63;;;1.40;;
18411;SDS011;27097;51.738;19.472;2023-05-07T13:53:44;2.13;;;1.60;;
18411;SDS011;27097;51.738;19.472;2023-05-07T13:56:11;1.67;;;1.55;;
18411;SDS011;27097;51.738;19.472;2023-05-07T13:58:39;2.28;;;1.60;;
18411;SDS011;27097;51.738;19.472;2023-05-07T14:01:07;1.60;;;1.48;;
18411;SDS011;27097;51.738;19.472;2023-05-07T14:03:34;2.25;;;1.25;;
18411;SDS011;27097;51.738;19.472;2023-05-07T14:06:02;1.50;;;1.40;;
18411;SDS011;27097;51.738;19.472;2023-05-07T14:08:29;1.85;;;1.35;;
18411;SDS011;27097;51.738;19.472;2023-05-07T14:10:56;1.50;;;1.33;;
18411;SDS011;27097;51.738;19.472;2023-05-07T14:13:23;2.10;;;1.55;;
18411;SDS011;27097;51.738;19.472;2023-05-07T14:15:50;3.35;;;1.48;;
18411;SDS011;27097;51.738;19.472;2023-05-07T14:18:18;1.92;;;1.40;;
18411;SDS011;27097;51.738;19.472;2023-05-07T14:20:45;1.83;;;1.42;;
18411;SDS011;27097;51.738;19.472;2023-05-07T14:23:13;2.50;;;1.45;;
18411;SDS011;27097;51.738;19.472;2023-05-07T14:25:42;1.92;;;1.50;;
18411;SDS011;27097;51.738;19.472;2023-05-07T14:28:09;6.55;;;1.77;;
18411;SDS011;27097;51.738;19.472;2023-05-07T14:30:36;2.50;;;1.50;;
18411;SDS011;27097;51.738;19.472;2023-05-07T14:33:03;1.35;;;1.25;;
18411;SDS011;27097;51.738;19.472;2023-05-07T14:35:32;2.20;;;1.45;;
18411;SDS011;27097;51.738;19.472;2023-05-07T14:37:58;1.60;;;1.30;;
18411;SDS011;27097;51.738;19.472;2023-05-07T14:40:25;2.67;;;1.50;;
18411;SDS011;27097;51.738;19.472;2023-05-07T14:42:52;1.67;;;1.40;;
18411;SDS011;27097;51.738;19.472;2023-05-07T14:45:20;4.53;;;1.60;;
18411;SDS011;27097;51.738;19.472;2023-05-07T14:47:47;1.52;;;1.40;;
18411;SDS011;27097;51.738;19.472;2023-05-07T14:50:16;3.38;;;1.80;;
18411;SDS011;27097;51.738;19.472;2023-05-07T14:52:45;4.72;;;1.85;;
18411;SDS011;27097;51.738;19.472;2023-05-07T14:55:12;8.32;;;1.95;;
18411;SDS011;27097;51.738;19.472;2023-05-07T14:57:51;8.50;;;1.88;;
18411;SDS011;27097;51.738;19.472;2023-05-07T15:00:21;10.05;;;1.85;;
18411;SDS011;27097;51.738;19.472;2023-05-07T15:03:01;10.43;;;1.73;;
18411;SDS011;27097;51.738;19.472;2023-05-07T15:05:31;12.65;;;2.17;;
18411;SDS011;27097;51.738;19.472;2023-05-07T15:08:00;5.07;;;1.77;;
18411;SDS011;27097;51.738;19.472;2023-05-07T15:10:27;6.72;;;1.60;;
18411;SDS011;27097;51.738;19.472;2023-05-07T15:12:54;4.13;;;1.45;;
18411;SDS011;27097;51.738;19.472;2023-05-07T15:15:20;6.65;;;1.60;;
18411;SDS011;27097;51.738;19.472;2023-05-07T15:17:47;8.00;;;1.70;;
18411;SDS011;27097;51.738;19.472;2023-05-07T15:20:14;5.50;;;1.70;;
18411;SDS011;27097;51.738;19.472;2023-05-07T15:22:42;3.88;;;1.60;;
18411;SDS011;27097;51.738;19.472;2023-05-07T15:25:12;13.50;;;1.52;;
18411;SDS011;27097;51.738;19.472;2023-05-07T15:27:39;10.35;;;1.98;;
18411;SDS011;27097;51.738;19.472;2023-05-07T15:30:07;10.18;;;2.22;;
18411;SDS011;27097;51.738;19.472;2023-05-07T15:32:36;7.55;;;1.90;;